createdAt,value
2019-04-14T00:00:38.306Z,40.40
2019-04-14T00:03:09.413Z,39.73
2019-04-14T00:05:38.818Z,42.23
2019-04-14T00:08:08.877Z,41.33
2019-04-14T00:10:38.454Z,44.35
2019-04-14T00:13:08.868Z,42.23
2019-04-14T00:15:42.720Z,42.33
2019-04-14T00:18:10.425Z,40.30
2019-04-14T00:20:40.456Z,45.83
2019-04-14T00:23:10.867Z,43.50
2019-04-14T00:25:41.215Z,43.45
2019-04-14T00:28:11.700Z,45.30
2019-04-14T00:30:41.177Z,44.40
2019-04-14T00:33:21.417Z,44.75
2019-04-14T00:35:55.926Z,43.35
2019-04-14T00:38:30.276Z,43.85
2019-04-14T00:41:05.612Z,43.92
2019-04-14T00:43:43.706Z,43.95
2019-04-14T00:46:21.221Z,48.33
2019-04-14T00:48:51.676Z,44.58
2019-04-14T00:51:22.094Z,46.48
2019-04-14T00:53:51.486Z,46.42
2019-04-14T00:56:21.487Z,51.68
2019-04-14T00:58:52.048Z,46.35
2019-04-14T01:01:21.903Z,47.33
2019-04-14T01:03:52.558Z,47.75
2019-04-14T01:06:22.971Z,44.95
2019-04-14T01:08:53.357Z,42.90
2019-04-14T01:11:22.868Z,46.63
2019-04-14T01:13:52.984Z,48.02
2019-04-14T01:16:24.902Z,45.58
2019-04-14T01:18:53.761Z,40.70
2019-04-14T01:21:24.242Z,44.38
2019-04-14T01:23:54.489Z,43.52
2019-04-14T01:26:24.647Z,46.50
2019-04-14T01:28:54.802Z,45.83
2019-04-14T01:31:25.114Z,45.52
2019-04-14T01:33:55.525Z,44.98
2019-04-14T01:36:25.565Z,47.60
2019-04-14T01:38:55.752Z,51.50
2019-04-14T01:41:26.088Z,47.00
2019-04-14T01:43:56.585Z,46.15
2019-04-14T01:46:28.434Z,45.78
2019-04-14T01:48:56.901Z,47.43
2019-04-14T01:51:33.552Z,45.33
2019-04-14T01:54:04.508Z,46.63
2019-04-14T01:56:52.101Z,46.60
2019-04-14T01:59:21.965Z,43.00
2019-04-14T02:01:54.259Z,42.62
2019-04-14T02:04:24.589Z,44.65
2019-04-14T02:06:55.120Z,46.53
2019-04-14T02:09:25.124Z,47.13
2019-04-14T02:11:55.207Z,42.70
2019-04-14T02:14:25.526Z,45.25
2019-04-14T02:16:57.828Z,42.53
2019-04-14T02:19:26.339Z,43.23
2019-04-14T02:21:56.332Z,43.10
2019-04-14T02:24:26.369Z,42.10
2019-04-14T02:26:56.857Z,43.98
2019-04-14T02:29:27.644Z,46.37
2019-04-14T02:32:30.267Z,46.55
2019-04-14T02:40:03.933Z,44.88
2019-04-14T02:42:40.293Z,46.70
2019-04-14T02:44:59.982Z,43.48
2019-04-14T02:50:01.786Z,43.00
2019-04-14T02:55:04.442Z,42.13
2019-04-14T02:57:30.369Z,42.70
2019-04-14T03:02:40.846Z,44.18
2019-04-14T03:05:01.827Z,40.55
2019-04-14T03:07:38.203Z,38.60
2019-04-14T03:10:10.989Z,42.80
2019-04-14T03:12:38.431Z,44.40
2019-04-14T03:15:07.289Z,39.15
2019-04-14T03:17:47.291Z,40.83
2019-04-14T03:20:32.129Z,42.23
2019-04-14T03:25:26.463Z,41.48
2019-04-14T03:27:58.429Z,44.63
2019-04-14T03:31:01.788Z,40.23
2019-04-14T03:38:14.617Z,43.48
2019-04-14T03:41:03.781Z,40.25
2019-04-14T03:43:25.260Z,40.28
2019-04-14T03:50:47.879Z,43.52
2019-04-14T03:53:21.419Z,43.15
2019-04-14T03:55:52.144Z,43.95
2019-04-14T03:58:16.026Z,42.30
2019-04-14T04:00:46.460Z,41.48
2019-04-14T04:03:15.977Z,46.15
2019-04-14T04:05:45.609Z,43.65
2019-04-14T04:08:15.790Z,40.85
2019-04-14T04:10:51.010Z,39.10
2019-04-14T04:13:21.583Z,41.48
2019-04-14T04:15:51.893Z,42.50
2019-04-14T04:18:26.585Z,40.80
2019-04-14T04:20:58.728Z,43.45
2019-04-14T04:23:33.495Z,43.90
2019-04-14T04:26:21.245Z,41.35
2019-04-14T04:28:52.234Z,42.70
2019-04-14T04:31:24.213Z,43.30
2019-04-14T04:33:58.643Z,44.73
2019-04-14T04:36:46.341Z,43.08
2019-04-14T04:39:17.404Z,41.05
2019-04-14T04:41:47.262Z,44.35
2019-04-14T04:44:17.927Z,40.03
2019-04-14T04:46:48.339Z,43.48
2019-04-14T04:49:21.767Z,45.00
2019-04-14T04:51:50.852Z,46.40
2019-04-14T04:54:21.066Z,44.83
2019-04-14T04:56:51.512Z,46.25
2019-04-14T04:59:21.293Z,44.13
2019-04-14T05:01:51.552Z,42.45
2019-04-14T05:04:22.013Z,43.78
2019-04-14T05:06:57.381Z,45.90
2019-04-14T05:09:33.832Z,48.75
2019-04-14T05:12:21.737Z,48.73
2019-04-14T05:14:52.784Z,43.13
2019-04-14T05:17:23.735Z,45.80
2019-04-14T05:19:54.020Z,41.55
2019-04-14T05:22:24.616Z,45.00
2019-04-14T05:24:55.032Z,46.33
2019-04-14T05:27:25.381Z,46.50
2019-04-14T05:29:55.837Z,46.75
2019-04-14T05:32:26.165Z,49.42
2019-04-14T05:34:56.530Z,43.78
2019-04-14T05:37:26.872Z,45.10
2019-04-14T05:39:56.977Z,44.95
2019-04-14T05:42:27.491Z,42.80
2019-04-14T05:44:57.865Z,41.77
2019-04-14T05:47:28.247Z,45.23
2019-04-14T05:49:59.157Z,40.75
2019-04-14T05:52:29.602Z,42.90
2019-04-14T05:55:00.051Z,42.65
2019-04-14T05:57:30.525Z,41.33
2019-04-14T06:00:00.045Z,41.42
2019-04-14T06:02:30.614Z,42.05
2019-04-14T06:05:01.516Z,41.23
2019-04-14T06:07:31.007Z,41.33
2019-04-14T06:10:00.306Z,42.00
2019-04-14T06:12:29.642Z,43.25
2019-04-14T06:14:59.021Z,43.05
2019-04-14T06:17:28.409Z,41.75
2019-04-14T06:19:57.786Z,42.93
2019-04-14T06:22:27.106Z,39.50
2019-04-14T06:24:56.413Z,42.15
2019-04-14T06:27:25.764Z,41.95
2019-04-14T06:29:56.701Z,41.77
2019-04-14T06:32:39.706Z,43.23
2019-04-14T06:35:10.794Z,40.75
2019-04-14T06:37:44.465Z,41.30
2019-04-14T06:40:13.775Z,42.13
2019-04-14T06:42:43.101Z,40.83
2019-04-14T06:45:12.558Z,43.85
2019-04-14T06:47:41.881Z,41.00
2019-04-14T06:50:11.390Z,41.75
2019-04-14T06:52:40.721Z,41.25
2019-04-14T06:55:10.093Z,41.75
2019-04-14T06:57:39.426Z,41.73
2019-04-14T07:00:09.080Z,45.55
2019-04-14T07:02:38.402Z,41.10
2019-04-14T07:05:07.946Z,38.48
2019-04-14T07:07:37.343Z,43.45
2019-04-14T07:10:08.141Z,41.42
2019-04-14T07:12:37.457Z,42.62
2019-04-14T07:15:07.917Z,47.73
2019-04-14T07:17:37.249Z,42.80
2019-04-14T07:20:07.026Z,46.48
2019-04-14T07:22:36.481Z,46.63
2019-04-14T07:25:06.529Z,46.55
2019-04-14T07:27:35.912Z,46.02
2019-04-14T07:30:10.621Z,47.05
2019-04-14T07:32:51.052Z,45.70
2019-04-14T07:35:25.748Z,43.78
2019-04-14T07:37:59.557Z,43.73
2019-04-14T07:40:46.988Z,47.23
2019-04-14T07:43:17.978Z,50.73
2019-04-14T07:45:48.929Z,44.98
2019-04-14T07:48:22.710Z,43.45
2019-04-14T07:50:53.740Z,46.45
2019-04-14T07:53:40.993Z,46.00
2019-04-14T07:56:26.923Z,41.58
2019-04-14T07:59:06.819Z,46.75
2019-04-14T08:01:40.691Z,45.83
2019-04-14T08:04:11.664Z,47.40
2019-04-14T08:06:42.621Z,45.63
2019-04-14T08:09:11.969Z,43.13
2019-04-14T08:11:41.346Z,40.85
2019-04-14T08:14:10.686Z,42.27
2019-04-14T08:16:40.150Z,42.83
2019-04-14T08:19:09.487Z,47.85
2019-04-14T08:21:38.800Z,47.78
2019-04-14T08:24:08.139Z,41.53
2019-04-14T08:26:37.437Z,42.67
2019-04-14T08:29:06.756Z,42.50
2019-04-14T08:31:36.096Z,45.38
2019-04-14T08:34:05.430Z,43.10
2019-04-14T08:36:34.837Z,43.68
2019-04-14T08:39:05.605Z,42.53
2019-04-14T08:41:36.798Z,36.55
2019-04-14T08:44:07.754Z,46.48
2019-04-14T08:46:54.762Z,40.85
2019-04-14T08:49:28.658Z,43.92
2019-04-14T08:52:02.332Z,41.80
2019-04-14T08:54:33.365Z,41.58
2019-04-14T08:57:04.330Z,38.55
2019-04-14T08:59:51.888Z,40.43
2019-04-14T09:02:37.633Z,39.45
2019-04-14T09:05:17.962Z,40.80
2019-04-14T09:07:57.451Z,39.35
2019-04-14T09:10:31.248Z,43.52
2019-04-14T09:13:00.569Z,39.55
2019-04-14T09:15:29.924Z,42.75
2019-04-14T09:17:59.272Z,41.25
2019-04-14T09:20:28.612Z,40.15
2019-04-14T09:22:57.945Z,37.42
2019-04-14T09:25:27.307Z,41.70
2019-04-14T09:27:56.865Z,40.38
2019-04-14T09:30:26.292Z,43.00
2019-04-14T09:32:55.620Z,44.18
2019-04-14T09:35:24.934Z,40.40
2019-04-14T09:37:54.260Z,38.05
2019-04-14T09:40:23.641Z,36.90
2019-04-14T09:42:52.985Z,42.05
2019-04-14T09:45:22.294Z,39.55
2019-04-14T09:47:51.782Z,39.00
2019-04-14T09:50:21.188Z,40.40
2019-04-14T09:52:50.489Z,40.92
2019-04-14T09:55:23.359Z,45.80
2019-04-14T09:57:52.171Z,41.60
2019-04-14T10:00:23.253Z,46.95
2019-04-14T10:02:52.600Z,35.63
2019-04-14T10:05:21.977Z,38.02
2019-04-14T10:07:51.393Z,45.12
2019-04-14T10:10:21.377Z,37.90
2019-04-14T10:12:50.864Z,43.92
2019-04-14T10:15:20.186Z,42.80
2019-04-14T10:17:49.502Z,38.10
2019-04-14T10:20:18.829Z,42.67
2019-04-14T10:22:48.148Z,40.23
2019-04-14T10:25:17.478Z,38.10
2019-04-14T10:27:46.982Z,38.60
2019-04-14T10:30:16.470Z,38.33
2019-04-14T10:32:45.807Z,37.08
2019-04-14T10:35:15.334Z,35.83
2019-04-14T10:37:44.709Z,36.88
2019-04-14T10:40:14.176Z,34.80
2019-04-14T10:42:43.486Z,36.15
2019-04-14T10:45:12.942Z,40.90
2019-04-14T10:47:42.292Z,35.58
2019-04-14T10:50:12.590Z,33.90
2019-04-14T10:52:41.977Z,37.13
2019-04-14T10:55:11.572Z,34.33
2019-04-14T10:57:40.958Z,35.17
2019-04-14T11:00:14.922Z,36.55
2019-04-14T11:02:45.117Z,41.25
2019-04-14T11:05:14.643Z,33.70
2019-04-14T11:07:44.017Z,33.13
2019-04-14T11:10:13.786Z,34.83
2019-04-14T11:12:43.210Z,35.73
2019-04-14T11:15:15.411Z,37.48
2019-04-14T11:17:43.861Z,35.55
2019-04-14T11:20:13.289Z,34.38
2019-04-14T11:22:42.596Z,35.25
2019-04-14T11:25:12.245Z,35.35
2019-04-14T11:27:41.608Z,35.68
2019-04-14T11:30:12.847Z,35.80
2019-04-14T11:32:50.428Z,36.83
2019-04-14T11:35:24.010Z,41.18
2019-04-14T11:38:00.917Z,38.25
2019-04-14T11:40:37.440Z,38.92
2019-04-14T11:43:06.755Z,37.55
2019-04-14T11:45:36.122Z,39.35
2019-04-14T11:48:05.550Z,37.10
2019-04-14T11:50:34.919Z,37.90
2019-04-14T11:53:05.584Z,38.20
2019-04-14T11:55:34.981Z,39.88
2019-04-14T11:58:04.448Z,35.95
2019-04-14T12:00:35.498Z,40.15
2019-04-14T12:03:09.928Z,38.90
2019-04-14T12:05:40.907Z,39.10
2019-04-14T12:08:17.840Z,35.92
2019-04-14T12:10:47.146Z,37.78
2019-04-14T12:13:16.492Z,38.42
2019-04-14T12:15:45.809Z,36.33
2019-04-14T12:18:15.131Z,36.75
2019-04-14T12:20:44.466Z,38.53
2019-04-14T12:23:16.042Z,38.83
2019-04-14T12:25:44.820Z,39.73
2019-04-14T12:28:14.149Z,36.90
2019-04-14T12:30:44.321Z,38.15
2019-04-14T12:33:13.813Z,37.33
2019-04-14T12:35:43.148Z,34.63
2019-04-14T12:38:13.809Z,33.90
2019-04-14T12:40:44.320Z,37.78
2019-04-14T12:43:27.732Z,34.13
2019-04-14T12:46:15.387Z,33.88
2019-04-14T12:48:58.425Z,35.83
2019-04-14T12:51:29.387Z,33.88
2019-04-14T12:53:58.737Z,36.48
2019-04-14T12:56:29.738Z,34.92
2019-04-14T12:59:00.814Z,34.38
2019-04-14T13:01:37.732Z,32.38
2019-04-14T13:04:07.066Z,29.60
2019-04-14T13:06:36.376Z,30.17
2019-04-14T13:09:07.064Z,24.75
2019-04-14T13:11:37.378Z,29.25
2019-04-14T13:14:06.791Z,25.85
2019-04-14T13:16:36.112Z,30.68
2019-04-14T13:19:05.440Z,24.63
2019-04-14T13:21:34.784Z,24.50
2019-04-14T13:24:04.586Z,25.68
2019-04-14T13:26:33.914Z,25.12
2019-04-14T13:29:03.330Z,22.93
2019-04-14T13:31:32.628Z,23.40
2019-04-14T13:34:01.986Z,24.10
2019-04-14T13:36:31.302Z,22.35
2019-04-14T13:39:00.676Z,21.00
2019-04-14T13:41:31.698Z,20.88
2019-04-14T13:44:01.050Z,19.95
2019-04-14T13:46:30.419Z,21.48
2019-04-14T13:49:00.726Z,20.50
2019-04-14T13:51:30.233Z,19.07
2019-04-14T13:53:59.567Z,23.98
2019-04-14T13:56:28.932Z,19.90
2019-04-14T13:58:58.263Z,24.95
2019-04-14T14:01:27.611Z,23.27
2019-04-14T14:03:57.001Z,19.45
2019-04-14T14:06:26.402Z,21.35
2019-04-14T14:08:55.705Z,22.65
2019-04-14T14:11:32.890Z,17.65
2019-04-14T14:14:06.796Z,21.30
2019-04-14T14:16:37.788Z,19.05
2019-04-14T14:19:14.641Z,18.27
2019-04-14T14:21:54.780Z,23.40
2019-04-14T14:24:25.821Z,20.50
2019-04-14T14:26:57.018Z,23.30
2019-04-14T14:29:26.427Z,20.80
2019-04-14T14:31:56.484Z,19.07
2019-04-14T14:34:25.913Z,20.15
2019-04-14T14:36:55.265Z,18.73
2019-04-14T14:39:24.581Z,20.75
2019-04-14T14:41:54.022Z,16.87
2019-04-14T14:44:24.966Z,20.92
2019-04-14T14:46:59.062Z,20.52
2019-04-14T14:49:35.819Z,19.45
2019-04-14T14:52:12.700Z,21.10
2019-04-14T14:54:42.026Z,22.35
2019-04-14T14:57:11.350Z,23.83
2019-04-14T14:59:40.676Z,23.00
2019-04-14T15:02:10.134Z,24.70
2019-04-14T15:04:39.479Z,20.35
2019-04-14T15:07:08.801Z,20.90
2019-04-14T15:09:38.296Z,19.35
2019-04-14T15:12:07.625Z,17.57
2019-04-14T15:14:36.953Z,18.55
2019-04-14T15:17:08.369Z,18.37
2019-04-14T15:19:37.333Z,18.35
2019-04-14T15:22:06.735Z,19.27
2019-04-14T15:24:36.142Z,19.85
2019-04-14T15:27:05.602Z,21.95
2019-04-14T15:29:35.033Z,19.07
2019-04-14T15:32:04.487Z,19.27
2019-04-14T15:34:33.839Z,20.82
2019-04-14T15:37:04.282Z,19.32
2019-04-14T15:39:33.648Z,17.67
2019-04-14T15:42:02.961Z,18.60
2019-04-14T15:44:32.302Z,17.75
2019-04-14T15:47:01.626Z,17.98
2019-04-14T15:49:31.033Z,19.98
2019-04-14T15:52:00.358Z,16.80
2019-04-14T15:54:29.708Z,16.77
2019-04-14T15:57:09.658Z,19.65
2019-04-14T15:59:40.634Z,17.70
2019-04-14T16:02:27.871Z,18.07
2019-04-14T16:05:12.511Z,16.87
2019-04-14T16:07:48.704Z,20.17
2019-04-14T16:10:19.712Z,16.95
2019-04-14T16:13:07.118Z,19.25
2019-04-14T16:15:44.232Z,18.35
2019-04-14T16:18:31.790Z,19.37
2019-04-14T16:21:02.075Z,18.52
2019-04-14T16:23:32.387Z,19.20
2019-04-14T16:26:19.696Z,20.95
2019-04-14T16:28:56.708Z,20.32
2019-04-14T16:31:44.178Z,17.90
2019-04-14T16:34:17.945Z,21.77
2019-04-14T16:36:48.964Z,23.52
2019-04-14T16:39:19.538Z,20.15
2019-04-14T16:41:48.950Z,21.37
2019-04-14T16:44:18.289Z,20.45
2019-04-14T16:46:47.933Z,19.98
2019-04-14T16:49:17.346Z,23.12
2019-04-14T16:51:51.549Z,24.82
2019-04-14T16:54:35.966Z,21.17
2019-04-14T16:57:06.933Z,25.08
2019-04-14T16:59:36.273Z,22.02
2019-04-14T17:02:10.982Z,23.07
2019-04-14T17:04:36.758Z,23.60
2019-04-14T17:07:06.076Z,24.25
2019-04-14T17:09:36.854Z,23.45
2019-04-14T17:12:07.818Z,22.40
2019-04-14T17:14:48.008Z,22.52
2019-04-14T17:17:35.524Z,23.65
2019-04-14T17:20:20.690Z,22.95
2019-04-14T17:22:54.483Z,23.50
2019-04-14T17:25:29.291Z,23.77
2019-04-14T17:28:06.674Z,24.02
2019-04-14T17:30:46.701Z,24.60
2019-04-14T17:33:23.518Z,30.32
2019-04-14T17:35:54.500Z,31.02
2019-04-14T17:38:34.387Z,25.55
2019-04-14T17:41:08.211Z,21.97
2019-04-14T17:43:51.196Z,22.58
2019-04-14T17:46:25.031Z,26.50
2019-04-14T17:49:04.549Z,22.87
2019-04-14T17:51:35.706Z,26.87
2019-04-14T17:54:06.638Z,23.92
2019-04-14T17:56:37.730Z,25.02
2019-04-14T17:59:08.740Z,25.82
2019-04-14T18:01:56.823Z,25.00
2019-04-14T18:04:39.861Z,25.75
2019-04-14T18:07:10.931Z,25.33
2019-04-14T18:09:41.895Z,20.27
2019-04-14T18:12:12.907Z,24.00
2019-04-14T18:15:00.056Z,20.97
2019-04-14T18:17:32.173Z,22.48
2019-04-14T18:20:03.147Z,23.47
2019-04-14T18:22:32.663Z,21.73
2019-04-14T18:25:02.058Z,21.23
2019-04-14T18:27:33.509Z,21.80
2019-04-14T18:30:07.545Z,25.57
2019-04-14T18:32:44.308Z,20.68
2019-04-14T18:35:18.317Z,26.75
2019-04-14T18:38:05.350Z,30.88
2019-04-14T18:40:36.314Z,34.70
2019-04-14T18:43:13.130Z,24.95
2019-04-14T18:45:47.131Z,23.83
2019-04-14T18:48:34.631Z,21.48
2019-04-14T18:51:20.742Z,21.57
2019-04-14T18:53:54.808Z,20.32
2019-04-14T18:56:28.463Z,21.25
2019-04-14T18:58:59.953Z,20.02
2019-04-14T19:01:31.196Z,20.27
2019-04-14T19:04:02.261Z,18.20
2019-04-14T19:06:32.386Z,22.37
2019-04-14T19:09:01.758Z,17.15
2019-04-14T19:11:34.712Z,20.37
2019-04-14T19:14:05.631Z,21.73
2019-04-14T19:16:40.168Z,19.48
2019-04-14T19:19:11.175Z,19.92
2019-04-14T19:21:41.640Z,20.50
2019-04-14T19:24:11.143Z,20.82
2019-04-14T19:26:40.562Z,19.42
2019-04-14T19:29:09.948Z,20.12
2019-04-14T19:31:39.274Z,20.68
2019-04-14T19:34:08.677Z,20.52
2019-04-14T19:36:38.039Z,17.82
2019-04-14T19:39:10.370Z,18.90
2019-04-14T19:41:40.204Z,18.62
2019-04-14T19:44:09.503Z,19.48
2019-04-14T19:46:38.913Z,19.32
2019-04-14T19:49:08.301Z,24.35
2019-04-14T19:51:37.654Z,15.72
2019-04-14T19:54:07.148Z,18.62
2019-04-14T19:56:36.480Z,17.65
2019-04-14T19:59:05.881Z,19.90
2019-04-14T20:01:35.213Z,18.30
2019-04-14T20:04:04.596Z,18.30
2019-04-14T20:06:34.035Z,17.77
2019-04-14T20:09:05.077Z,20.77
2019-04-14T20:11:36.238Z,16.53
2019-04-14T20:14:05.802Z,17.52
2019-04-14T20:16:42.703Z,17.37
2019-04-14T20:19:13.715Z,17.20
2019-04-14T20:21:44.981Z,17.73
2019-04-14T20:24:21.923Z,16.00
2019-04-14T20:26:55.533Z,18.00
2019-04-14T20:29:32.788Z,17.67
2019-04-14T20:32:03.839Z,16.50
2019-04-14T20:34:33.171Z,16.23
2019-04-14T20:37:02.533Z,15.35
2019-04-14T20:39:33.193Z,17.42
2019-04-14T20:42:02.523Z,17.17
2019-04-14T20:44:31.914Z,18.50
2019-04-14T20:47:01.276Z,18.17
2019-04-14T20:49:30.617Z,16.30
2019-04-14T20:51:59.935Z,16.77
2019-04-14T20:54:29.286Z,12.75
2019-04-14T20:56:58.621Z,14.33
2019-04-14T20:59:27.962Z,11.80
2019-04-14T21:02:01.902Z,14.00
2019-04-14T21:04:32.874Z,11.00
2019-04-14T21:07:20.235Z,12.63
2019-04-14T21:09:54.012Z,12.15
2019-04-14T21:12:36.945Z,12.95
2019-04-14T21:15:08.572Z,13.68
2019-04-14T21:17:54.906Z,11.00
2019-04-14T21:20:41.957Z,14.23
2019-04-14T21:23:12.929Z,13.10
2019-04-14T21:26:00.520Z,15.03
2019-04-14T21:28:25.802Z,12.60
2019-04-14T21:31:03.011Z,13.05
2019-04-14T21:33:49.337Z,13.28
2019-04-14T21:36:38.403Z,12.93
2019-04-14T21:39:12.634Z,16.85
2019-04-14T21:41:43.648Z,16.07
2019-04-14T21:44:13.003Z,20.80
2019-04-14T21:46:42.401Z,24.02
2019-04-14T21:49:11.733Z,14.95
2019-04-14T21:51:51.946Z,14.93
2019-04-14T21:54:21.642Z,13.68
2019-04-14T21:57:08.985Z,16.23
2019-04-14T21:59:56.180Z,15.25
2019-04-14T22:02:43.869Z,14.20
2019-04-14T22:05:20.705Z,13.05
2019-04-14T22:08:20.625Z,15.70
2019-04-14T22:10:54.232Z,11.83
2019-04-14T22:13:23.955Z,12.07
2019-04-14T22:15:53.363Z,14.85
2019-04-14T22:18:22.689Z,12.70
2019-04-14T22:20:52.084Z,12.33
2019-04-14T22:23:21.409Z,13.50
2019-04-14T22:25:50.729Z,12.98
2019-04-14T22:28:20.039Z,13.72
2019-04-14T22:30:49.363Z,12.68
2019-04-14T22:33:18.679Z,13.25
2019-04-14T22:35:47.984Z,15.08
2019-04-14T22:38:17.350Z,13.03
2019-04-14T22:40:46.669Z,12.78
2019-04-14T22:43:15.985Z,13.75
2019-04-14T22:45:45.374Z,15.20
2019-04-14T22:48:14.690Z,14.87
2019-04-14T22:50:44.100Z,13.85
2019-04-14T22:53:13.454Z,12.95
2019-04-14T22:55:42.760Z,12.80
2019-04-14T22:58:12.081Z,13.98
2019-04-14T23:00:52.056Z,14.25
2019-04-14T23:03:30.721Z,13.45
2019-04-14T23:06:05.107Z,14.30
2019-04-14T23:08:36.119Z,12.33
2019-04-14T23:11:23.945Z,12.70
2019-04-14T23:13:57.393Z,13.53
2019-04-14T23:19:13.386Z,11.80
2019-04-14T23:21:47.068Z,14.07
2019-04-14T23:24:18.033Z,13.98
2019-04-14T23:26:52.928Z,13.28
2019-04-14T23:29:18.477Z,15.23
2019-04-14T23:31:47.966Z,14.65
2019-04-14T23:34:17.482Z,14.75
2019-04-14T23:36:46.860Z,14.18
2019-04-14T23:39:16.180Z,16.20
2019-04-14T23:41:45.477Z,12.58
2019-04-14T23:44:14.946Z,12.70
2019-04-14T23:46:44.250Z,13.38
2019-04-14T23:49:13.557Z,13.75
2019-04-14T23:51:42.864Z,14.50
2019-04-14T23:54:12.171Z,14.13
2019-04-14T23:56:41.634Z,13.00
2019-04-14T23:59:21.280Z,12.35
